Alicia, AR

8:12 AM CST on November 22, 2014 (GMT -0600)
Walnut Ridge Regional | Change Station
CLOSE
Current Station
Airport
Location: Walnut Ridge,
Elevation: 272 ft
Nearby Weather Stations

Elev 272 ft 36.12 °N, 90.93 °W | Updated 17 minutes ago

Mostly Cloudy
Mostly Cloudy
46 °F
Feels Like 46 °F
N
0
Wind Variable Wind from North

Today
High -- | Low -- °F
--% Chance of Precip.
Yesterday
High -- | Low -- °F
Precip. -- in
6:47 AM 4:51 PM
New Moon, 0% visible
Pressure 30.19 in
Visibility 8.0 miles
Clouds Mostly Cloudy 6500 ft
Dew Point 39 °F
Humidity 76%
Rainfall 0.00 in
Snow Depth Not available.
UV 0 out of 12
Pollen 1.10 out of 12
Air Quality Not available.
Flu Activity Not available.
METAR KARG 221355Z AUTO 00000KT 8SM BKN065 08/04 A3019 RMK AO1

More Conditions Fewer Conditions

Pressure 30.19 in
Visibility 8.0 miles
Clouds Mostly Cloudy 6500 ft
Dew Point 39 °F
Humidity 76%
Rainfall 0.00 in
Snow Depth Not available.
UV 0 out of 12
Pollen 1.10 out of 12
Air Quality Not available.
Flu Activity Not available.
METAR KARG 221355Z AUTO 00000KT 8SM BKN065 08/04 A3019 RMK AO1

More Conditions Fewer Conditions

10-Day Weather Forecast

Almanac

Astronomy

Nov. 22, 2014 Rise Set
Actual Time
Civil Twilight
Nautical Twilight
Astronomical Twilight
Moon
Length of Visible Light
Length of Day
Tomorrow will be .
, % of the Moon is Illuminated

Today's Extremes

State Highs State Lows

Community

WunderPhotos

Upload Photos

1,772,818 photos uploaded!

WunderBlogs® & News

Nearby

Air Quality

  Air Quality AQ Index Pollutant
Not available.

Snow Depth

Station Depth Elevation

Earthquake Activity

City Distance Mag. Time & Date
Minimum magnitude displayed is 2.5.

Coastal Water Temperatures

Place Temperature

Nearby Weather Stations